Latest Weather Observations for Rowley Shoals

IDW60801

Issued at 12:35 pm WST Tuesday 29 July 2014 (issued every 30 minutes, with the page automatically refreshed every 10 minutes)

About weather observations | Map of weather stations | Latest weather observations for WA | Other Formats
Station Details ID: 200713 Name: ROWLEY SHOALS Lat: -17.52 Lon: 118.95 Height: 0.0 m
Data from the previous 72 hours. | See also: Recent months for locations in Western Australia
Date/Time
WST
Temp
°C
App
Temp
°C
Dew
Point
Rel
Hum
%
Delta-T
°C
Wind Press
QNH
hPa
Press
MSL
hPa
Rain
since 9 am
mm
Dir
 
Spd
km/h
Gust
km/h
Spd
kts
Gust
kts
29/12:30pm - - - - - ESE 22 24 12 13 1015.4 - -
29/12:00pm - - - - - E 22 26 12 14 1015.7 1015.7 -
29/11:30am - - - - - E 24 30 13 16 1016.0 - -
29/11:00am - - - - - E 26 28 14 15 1016.1 1016.1 -
29/10:30am - - - - - ESE 28 33 15 18 1016.5 - -
29/10:00am - - - - - ESE 28 33 15 18 1016.6 1016.6 -
29/09:30am - - - - - SE 24 28 13 15 1016.5 - -
29/09:00am - - - - - SE 26 30 14 16 1016.4 1016.4 -
29/08:30am - - - - - SE 28 30 15 16 1016.3 - -
29/08:00am - - - - - SE 26 28 14 15 1016.2 1016.2 -
29/07:30am - - - - - SE 22 28 12 15 1016.0 - -
29/07:00am - - - - - SSE 20 26 11 14 1015.7 1015.7 -
29/06:30am - - - - - SSE 22 26 12 14 1015.5 - -
29/06:00am - - - - - SSE 20 24 11 13 1015.2 1015.3 -
29/05:30am - - - - - SSE 24 28 13 15 1015.3 - -
29/05:00am - - - - - SSE 24 24 13 13 1015.2 1015.2 -
29/04:30am - - - - - SSE 19 20 10 11 1015.4 - -
29/04:00am - - - - - SSE 22 28 12 15 1015.2 1015.2 -
29/03:30am - - - - - SSE 19 24 10 13 1015.4 - -
29/03:00am - - - - - SSE 20 26 11 14 1015.1 1015.2 -
29/02:30am - - - - - S 11 15 6 8 1015.3 - -
29/02:00am - - - - - S 13 17 7 9 1015.3 1015.3 -
29/01:30am - - - - - S 9 13 5 7 1015.5 - -
29/01:00am - - - - - S 9 15 5 8 1015.7 1015.7 -
29/12:30am - - - - - S 6 11 3 6 1016.0 - -
29/12:00am - - - - - S 9 13 5 7 1016.1 1016.2 -
 
Date/Time
WST
Temp
°C
App
Temp
°C
Dew
Point
Rel
Hum
%
Delta-T
°C
Wind Press
QNH
hPa
Press
MSL
hPa
Rain
since 9 am
mm
Dir
 
Spd
km/h
Gust
km/h
Spd
kts
Gust
kts
28/11:30pm - - - - - S 6 7 3 4 1016.2 - -
28/11:00pm - - - - - S 6 9 3 5 1016.2 1016.2 -
28/10:30pm - - - - - S 7 11 4 6 1016.2 - -
28/10:00pm - - - - - SSE 9 15 5 8 1016.4 1016.3 -
28/09:30pm - - - - - SSE 19 20 10 11 1016.3 - -
28/09:00pm - - - - - SE 19 24 10 13 1016.3 1016.3 -
28/08:30pm - - - - - SSE 19 20 10 11 1016.0 - -
28/08:00pm - - - - - SSE 19 22 10 12 1015.8 1016.0 -
28/07:30pm - - - - - SSE 20 24 11 13 1015.8 - -
28/07:00pm - - - - - SE 20 22 11 12 1015.5 1015.7 -
28/06:30pm - - - - - SE 20 22 11 12 1015.3 - -
28/06:00pm - - - - - SE 20 24 11 13 1015.0 1015.0 -
28/05:00pm - - - - - SE 22 26 12 14 1014.6 1014.6 -
28/04:30pm - - - - - SE 24 28 13 15 1014.4 - -
28/04:00pm - - - - - SE 24 26 13 14 1014.3 1014.3 -
28/03:30pm - - - - - SE 22 24 12 13 1014.4 - -
28/03:00pm - - - - - SE 20 24 11 13 1014.5 1014.5 -
28/02:30pm - - - - - SE 20 24 11 13 1014.8 - -
28/02:00pm - - - - - SE 22 24 12 13 1015.1 1015.0 -
28/01:30pm - - - - - SE 22 26 12 14 1015.7 - -
28/01:00pm - - - - - ESE 22 26 12 14 1016.2 1016.0 -
28/12:30pm - - - - - ESE 26 30 14 16 1016.4 - -
28/12:00pm - - - - - ESE 28 33 15 18 1016.9 1016.8 -
28/11:30am - - - - - ESE 30 35 16 19 1017.3 - -
28/11:00am - - - - - ESE 22 24 12 13 1017.8 1017.8 -
28/10:30am - - - - - ESE 20 26 11 14 1018.1 - -
28/10:00am - - - - - ESE 24 28 13 15 1018.3 1018.3 -
28/09:30am - - - - - SE 19 20 10 11 1018.3 - -
28/09:00am - - - - - SE 20 24 11 13 1018.2 1018.5 -
28/08:30am - - - - - SE 22 26 12 14 1018.0 - -
28/08:00am - - - - - SE 28 32 15 17 1017.5 1017.7 -
28/07:30am - - - - - SSE 30 35 16 19 1017.1 - -
28/07:00am - - - - - SSE 33 41 18 22 1016.5 1016.7 -
28/06:30am - - - - - SSE 32 39 17 21 1016.6 - -
28/06:00am - - - - - SSE 24 32 13 17 1016.3 1016.3 -
28/05:30am - - - - - S 24 35 13 19 1016.0 - -
28/05:00am - - - - - S 19 28 10 15 1016.0 1015.9 -
28/04:30am - - - - - SSE 22 28 12 15 1015.8 - -
28/04:00am - - - - - S 19 28 10 15 1015.9 1015.9 -
28/03:30am - - - - - S 15 22 8 12 1015.9 - -
28/03:00am - - - - - S 17 22 9 12 1016.0 1015.9 -
28/02:30am - - - - - SE 20 24 11 13 1016.2 - -
28/02:00am - - - - - SE 24 28 13 15 1016.3 1016.3 -
28/01:30am - - - - - SSE 19 22 10 12 1016.4 - -
28/01:00am - - - - - SSE 19 20 10 11 1016.6 1016.5 -
28/12:30am - - - - - SSE 13 19 7 10 1016.9 - -
28/12:00am - - - - - S 13 20 7 11 1017.0 1016.9 -
 
Date/Time
WST
Temp
°C
App
Temp
°C
Dew
Point
Rel
Hum
%
Delta-T
°C
Wind Press
QNH
hPa
Press
MSL
hPa
Rain
since 9 am
mm
Dir
 
Spd
km/h
Gust
km/h
Spd
kts
Gust
kts
27/11:30pm - - - - - S 13 15 7 8 1017.1 - -
27/11:00pm - - - - - S 13 20 7 11 1017.3 1017.2 -
27/10:30pm - - - - - SSE 19 20 10 11 1017.4 - -
27/10:00pm - - - - - SSE 19 20 10 11 1017.5 1017.5 -
27/09:30pm - - - - - SSE 19 20 10 11 1017.5 - -
27/09:00pm - - - - - SSE 20 24 11 13 1017.2 1017.2 -
27/08:30pm - - - - - SSE 22 24 12 13 1017.2 - -
27/08:00pm - - - - - SSE 22 26 12 14 1017.0 1017.1 -
27/07:30pm - - - - - SSE 24 26 13 14 1016.8 - -
27/07:00pm - - - - - SSE 26 28 14 15 1016.6 1016.7 -
27/06:30pm - - - - - SSE 26 28 14 15 1016.5 - -
27/06:00pm - - - - - SSE 24 30 13 16 1016.2 1016.2 -
27/05:30pm - - - - - SE 26 30 14 16 1016.1 - -
27/05:00pm - - - - - SE 28 32 15 17 1015.9 1016.0 -
27/04:30pm - - - - - SE 28 32 15 17 1015.8 - -
27/04:00pm - - - - - SE 28 32 15 17 1015.7 1015.8 -
27/03:30pm - - - - - SE 26 32 14 17 1015.7 - -
27/03:00pm - - - - - SE 28 32 15 17 1015.7 1015.7 -
27/02:30pm - - - - - SE 30 33 16 18 1015.8 - -
27/02:00pm - - - - - SE 32 35 17 19 1016.0 1015.9 -
27/01:30pm - - - - - SE 32 37 17 20 1016.4 - -
27/01:00pm - - - - - SE 33 37 18 20 1016.7 1016.6 -
27/12:30pm - - - - - SE 33 39 18 21 1017.2 - -
27/12:00pm - - - - - SE 35 41 19 22 1017.7 1017.5 -
27/11:30am - - - - - SE 33 39 18 21 1017.9 - -
27/11:00am - - - - - SE 33 37 18 20 1018.1 1018.1 -
27/10:30am - - - - - SSE 32 37 17 20 1018.2 - -
27/10:00am - - - - - SSE 33 39 18 21 1018.3 1018.3 -
27/09:30am - - - - - SSE 33 41 18 22 1018.6 - -
27/09:00am - - - - - SSE 35 39 19 21 1018.8 1018.7 -
27/08:30am - - - - - SSE 33 39 18 21 1018.7 - -
27/08:00am - - - - - SSE 33 39 18 21 1018.5 1018.5 -
27/07:30am - - - - - SSE 30 35 16 19 1018.0 - -
27/07:00am - - - - - SSE 32 33 17 18 1017.7 1017.8 -
27/06:30am - - - - - SSE 30 33 16 18 1017.5 - -
27/06:00am - - - - - SSE 24 28 13 15 1017.6 1017.6 -
27/05:30am - - - - - SSE 26 30 14 16 1017.6 - -
27/05:00am - - - - - SSE 24 28 13 15 1017.5 1017.5 -
27/04:30am - - - - - SE 24 28 13 15 1017.5 - -
27/04:00am - - - - - SSE 22 30 12 16 1017.4 1017.3 -
27/03:30am - - - - - SSE 24 28 13 15 1017.3 - -
27/03:00am - - - - - SSE 22 24 12 13 1017.4 1017.3 -
27/02:30am - - - - - S 13 17 7 9 1017.4 - -
27/02:00am - - - - - S 13 19 7 10 1017.7 1017.6 -
27/01:30am - - - - - S 13 19 7 10 1018.0 - -
27/01:00am - - - - - S 15 22 8 12 1018.1 1018.1 -
27/12:30am - - - - - SSE 19 24 10 13 1018.1 - -
27/12:00am - - - - - SSE 20 24 11 13 1018.2 1018.1 -
 
Date/Time
WST
Temp
°C
App
Temp
°C
Dew
Point
Rel
Hum
%
Delta-T
°C
Wind Press
QNH
hPa
Press
MSL
hPa
Rain
since 9 am
mm
Dir
 
Spd
km/h
Gust
km/h
Spd
kts
Gust
kts
26/11:30pm - - - - - SSE 19 22 10 12 1018.3 - -
26/11:00pm - - - - - S 17 24 9 13 1018.3 1018.3 -
26/10:30pm - - - - - SSE 17 22 9 12 1018.3 - -
26/10:00pm - - - - - SSE 19 26 10 14 1018.3 1018.4 -
26/09:30pm - - - - - SSE 22 26 12 14 1018.2 - -
26/09:00pm - - - - - SSE 20 24 11 13 1018.3 1018.3 -
26/08:30pm - - - - - SE 20 24 11 13 1018.2 - -
26/08:00pm - - - - - SE 22 24 12 13 1018.1 1018.0 -
26/07:30pm - - - - - ESE 17 22 9 12 1018.2 - -
26/07:00pm - - - - - ESE 19 24 10 13 1017.8 1018.0 -
26/06:30pm - - - - - ESE 19 22 10 12 1017.8 - -
26/06:00pm - - - - - ESE 20 26 11 14 1017.4 1017.5 -
26/05:30pm - - - - - ESE 22 26 12 14 1017.1 - -
26/05:00pm - - - - - SE 22 26 12 14 1016.9 1017.0 -
26/04:30pm - - - - - SE 22 26 12 14 1016.9 - -
26/04:00pm - - - - - SE 22 26 12 14 1016.8 1016.9 -
26/03:30pm - - - - - ESE 17 20 9 11 1017.0 - -
26/03:00pm - - - - - SE 17 20 9 11 1017.0 1016.9 -
26/02:30pm - - - - - ESE 17 20 9 11 1017.2 - -
26/02:00pm - - - - - ESE 19 24 10 13 1017.4 1017.3 -
26/01:30pm - - - - - E 19 24 10 13 1017.7 - -
26/01:00pm - - - - - ESE 20 22 11 12 1017.9 1017.7 -

Other Formats:

Comma delimited format used in spreadsheet applications
http://www.bom.gov.au/fwo/IDW60801/IDW60801.94207.axf

JavaScript Object Notation format (JSON) in row-major order
http://www.bom.gov.au/fwo/IDW60801/IDW60801.94207.json